McKeesport, Pennsylvania
Current Conditions -  °F | °C
As of 8:53 AM on Sunday 23 Nov 2014 (Local Time) from KAGC Reporting Station
Overcast Overcast  
Wind Chill: 50°   Ceiling: 9500
Heat Index: 50°   Visibility: 10mi
Dew Point: 23°   Wind: 9mph
Humidity: 35%   Direction: 190°S
Pressure: 30.09"   Gusts: NA
Location:  40.35°N, 79.86°W
Report Text: KAGC 231353Z 19008KT 10SM OVC095 10/M05 A3009 RMK AO2 SLP198 T01001050
Loading
Personal Weather Stations






























Interactive Weather Map New forecast layout! Learn more

10-Day Weather Forecast

Advertisements
Track Severe Weather on mobile